Time;durP1;ratioP1;P1;durP2;ratioP2;P2;SDS_P1;SDS_P2;PMS_P1;PMS_P2;Temp;Humidity;BMP_temperature;BMP_pressure;BME280_temperature;BME280_humidity;BME280_pressure;Samples;Min_cycle;Max_cycle;Signal;HPM_P1;HPM_P2
2021/12/06 00:02:08;;;;;;;30.48;13.98;;;;;;;0.16;71.60;100128.59;4807484;29;20112;-84
2021/12/06 00:04:37;;;;;;;30.25;15.00;;;;;;;-0.25;72.29;100082.91;4806928;29;20096;-82
2021/12/06 00:07:12;;;;;;;32.40;15.13;;;;;;;-0.07;72.33;100132.59;4807416;29;20091;-83
2021/12/06 00:09:39;;;;;;;32.50;15.95;;;;;;;-0.13;72.52;100144.25;4807070;29;20465;-83
2021/12/06 00:12:07;;;;;;;29.90;14.57;;;;;;;-0.13;72.49;100137.44;4810089;29;20085;-83
2021/12/06 00:14:38;;;;;;;31.80;15.60;;;;;;;-0.14;72.30;100134.78;4825056;29;20519;-83
2021/12/06 00:17:08;;;;;;;32.50;15.52;;;;;;;-0.13;72.71;100139.13;4824052;29;20134;-82
2021/12/06 00:19:36;;;;;;;;;;;;;;;-0.38;72.53;100137.00;4825559;29;20062;-82
2021/12/06 00:22:06;;;;;;;32.47;15.50;;;;;;;-0.35;72.67;100120.06;4825262;29;19936;-83
2021/12/06 00:24:33;;;;;;;;;;;;;;;-0.24;72.47;100148.84;4825790;29;20073;-82
2021/12/06 00:27:01;;;;;;;32.58;16.17;;;;;;;-0.39;72.60;100097.59;4825576;29;19936;-83
2021/12/06 00:29:28;;;;;;;31.13;14.95;;;;;;;0.04;72.34;100142.53;4824181;29;20058;-84
2021/12/06 00:31:56;;;;;;;35.35;16.20;;;;;;;-0.02;72.38;100128.59;4832885;29;20099;-82
2021/12/06 00:34:25;;;;;;;33.13;16.02;;;;;;;0.09;72.25;100143.66;4829501;29;20065;-84
2021/12/06 00:37:06;;;;;;;30.65;16.00;;;;;;;0.10;72.30;100150.53;4824537;29;20431;-83
2021/12/06 00:39:33;;;;;;;29.90;15.63;;;;;;;0.13;72.22;100141.31;4825686;29;20086;-84
2021/12/06 00:42:03;;;;;;;37.35;18.20;;;;;;;0.26;72.35;100141.91;4825470;29;20111;-83
2021/12/06 00:44:31;;;;;;;32.95;15.45;;;;;;;0.30;71.95;100147.28;4823882;29;20062;-83
2021/12/06 00:46:58;;;;;;;31.77;15.95;;;;;;;0.22;71.86;100134.88;4825512;29;20054;-84
2021/12/06 00:49:26;;;;;;;30.50;15.68;;;;;;;0.27;72.10;100147.13;4825270;29;20058;-83
2021/12/06 00:51:53;;;;;;;35.88;15.95;;;;;;;0.19;72.07;100131.34;4825328;29;20085;-84
2021/12/06 00:54:20;;;;;;;36.78;16.75;;;;;;;0.18;72.16;100120.97;4825670;29;20074;-83
2021/12/06 00:56:49;;;;;;;36.03;17.15;;;;;;;0.35;71.76;100143.25;4806286;29;20481;-84
2021/12/06 00:59:17;;;;;;;36.00;16.73;;;;;;;0.34;71.85;100143.16;4808207;29;20066;-84
2021/12/06 01:01:44;;;;;;;34.90;18.25;;;;;;;0.18;72.08;100137.28;4823030;29;20066;-84
2021/12/06 01:04:12;;;;;;;36.67;17.52;;;;;;;0.33;72.14;100133.69;4824075;29;20087;-84
2021/12/06 01:06:39;;;;;;;31.92;16.48;;;;;;;0.38;72.02;100138.25;4824584;29;20061;-83
2021/12/06 01:09:07;;;;;;;35.90;17.15;;;;;;;0.18;72.41;100103.88;4824919;29;20614;-85
2021/12/06 01:11:34;;;;;;;35.95;17.08;;;;;;;0.33;72.22;100142.28;4824765;29;20409;-83
2021/12/06 01:14:02;;;;;;;36.50;17.35;;;;;;;0.26;72.07;100129.94;4824723;29;20054;-83
2021/12/06 01:16:30;;;;;;;37.40;17.88;;;;;;;0.23;72.55;100134.91;4823479;29;20054;-82
2021/12/06 01:18:57;;;;;;;40.20;18.13;;;;;;;0.04;72.42;100101.44;4825257;29;20516;-83
2021/12/06 01:21:43;;;;;;;34.42;17.73;;;;;;;0.13;72.36;100125.91;4823557;29;20058;-85
2021/12/06 01:24:12;;;;;;;39.58;18.40;;;;;;;0.19;72.59;100120.16;4824629;29;20065;-84
2021/12/06 01:27:01;;;;;;;38.22;17.77;;;;;;;0.33;72.33;100129.44;4820923;29;20050;-83
2021/12/06 01:40:08;;;;;;;32.45;16.73;;;;;;;0.28;72.25;100115.50;4805220;29;20058;-84
2021/12/06 01:42:36;;;;;;;32.65;16.48;;;;;;;0.41;71.73;100140.09;4806573;29;20071;-85
2021/12/06 01:45:05;;;;;;;32.70;16.20;;;;;;;0.39;71.30;100140.00;4806736;29;20123;-83
2021/12/06 01:47:38;;;;;;;33.97;16.33;;;;;;;0.31;71.41;100130.19;4805775;29;20193;-83
2021/12/06 01:50:15;;;;;;;33.47;16.63;;;;;;;0.28;71.76;100143.75;4806939;29;20059;-84
2021/12/06 01:52:49;;;;;;;32.75;16.55;;;;;;;0.27;71.60;100153.94;4805679;29;20065;-83
2021/12/06 01:55:22;;;;;;;35.25;16.65;;;;;;;0.34;71.07;100140.59;4804715;29;20065;-84
2021/12/06 01:57:50;;;;;;;32.72;16.80;;;;;;;0.35;71.88;100150.06;4806182;29;20063;-82
2021/12/06 02:00:29;;;;;;;36.50;16.90;;;;;;;0.45;71.89;100141.97;4805231;29;20588;-82
2021/12/06 02:03:04;;;;;;;31.48;16.25;;;;;;;0.51;71.60;100149.13;4805751;29;20069;-84
2021/12/06 02:05:37;;;;;;;34.35;16.52;;;;;;;0.56;71.32;100157.91;4818895;29;20063;-83
2021/12/06 02:08:07;;;;;;;36.53;16.92;;;;;;;0.63;71.14;100147.16;4823521;29;20412;-83
2021/12/06 02:10:37;;;;;;;31.92;15.75;;;;;;;0.61;71.28;100151.31;4824952;29;20058;-82
2021/12/06 02:13:10;;;;;;;30.88;15.45;;;;;;;0.49;71.51;100149.03;4826328;29;20062;-83
2021/12/06 02:15:49;;;;;;;30.75;15.40;;;;;;;0.48;71.76;100149.84;4828127;29;20103;-83
2021/12/06 02:21:18;;;;;;;31.92;16.52;;;;;;;0.38;71.77;100145.94;4821683;29;20100;-82
2021/12/06 02:23:48;;;;;;;33.88;15.65;;;;;;;0.46;71.89;100159.19;4819905;29;20055;-82
2021/12/06 02:26:16;;;;;;;33.67;16.27;;;;;;;0.50;71.91;100161.09;4812451;29;20063;-83
2021/12/06 02:28:44;;;;;;;30.60;15.32;;;;;;;0.48;71.35;100155.00;4810144;29;20058;-83
2021/12/06 02:31:13;;;;;;;26.20;14.00;;;;;;;0.45;71.30;100147.13;4781292;30;20055;-81
2021/12/06 02:33:40;;;;;;;28.80;13.52;;;;;;;0.51;71.16;100165.41;4798599;29;20508;-83
2021/12/06 02:36:08;;;;;;;27.70;14.15;;;;;;;0.42;71.64;100159.84;4791733;30;20066;-83
2021/12/06 02:38:35;;;;;;;27.67;13.25;;;;;;;0.49;71.47;100168.72;4790554;30;20628;-84
2021/12/06 02:41:03;;;;;;;27.00;13.63;;;;;;;0.48;71.28;100170.41;4791331;30;20521;-86
2021/12/06 02:43:33;;;;;;;24.83;13.57;;;;;;;0.32;71.45;100147.34;4789829;30;20414;-85
2021/12/06 02:46:02;;;;;;;28.00;13.63;;;;;;;0.32;71.34;100170.47;4789410;30;20059;-84
2021/12/06 02:48:30;;;;;;;23.25;12.88;;;;;;;0.25;71.44;100174.44;4790107;30;20063;-84
2021/12/06 02:51:00;;;;;;;24.67;12.95;;;;;;;0.35;71.54;100176.66;4790168;30;20063;-84
2021/12/06 02:53:31;;;;;;;28.08;13.32;;;;;;;0.36;71.17;100164.69;4791513;29;20500;-83
2021/12/06 02:56:04;;;;;;;24.58;12.32;;;;;;;0.35;70.77;100168.06;4791097;30;20121;-84
2021/12/06 03:01:15;;;;;;;26.25;12.60;;;;;;;0.37;71.06;100177.59;4792346;29;20050;-85
2021/12/06 03:03:44;;;;;;;25.67;12.95;;;;;;;0.29;70.91;100175.47;4808332;29;20137;-84
2021/12/06 03:06:13;;;;;;;25.40;13.10;;;;;;;0.18;71.22;100162.09;4791960;29;20055;-83
2021/12/06 03:08:48;;;;;;;25.70;11.95;;;;;;;0.16;71.19;100161.13;4807238;29;20252;-83
2021/12/06 03:11:27;;;;;;;26.02;12.93;;;;;;;0.32;71.11;100191.03;4807365;29;20405;-83
2021/12/06 03:13:54;;;;;;;29.30;13.20;;;;;;;0.23;71.27;100191.44;4809389;29;20062;-84
2021/12/06 03:16:22;;;;;;;27.92;13.65;;;;;;;0.33;71.20;100203.97;4807728;29;20086;-82
2021/12/06 03:18:51;;;;;;;25.85;12.98;;;;;;;0.39;70.84;100204.28;4807379;29;20046;-84
2021/12/06 03:21:20;;;;;;;25.85;12.52;;;;;;;0.24;70.79;100190.66;4792944;29;20090;-83
2021/12/06 03:23:53;;;;;;;25.83;13.02;;;;;;;0.30;70.97;100202.91;4806278;29;20055;-83
2021/12/06 03:26:20;;;;;;;;;;;;;;;0.05;71.32;100208.53;4815016;29;20068;-82
2021/12/06 03:28:47;;;;;;;30.95;13.55;;;;;;;0.14;71.51;100226.97;4829927;29;19933;-81
2021/12/06 03:31:19;;;;;;;29.73;13.70;;;;;;;0.06;71.53;100200.00;4824243;29;20062;-83
2021/12/06 03:33:49;;;;;;;30.88;13.60;;;;;;;0.13;71.01;100227.75;4808807;29;20058;-82
2021/12/06 03:36:19;;;;;;;24.90;13.43;;;;;;;0.09;71.21;100218.16;4820294;29;20110;-83
2021/12/06 03:38:48;;;;;;;;;;;;;;;-0.04;71.63;100227.78;4797335;29;20063;-84
2021/12/06 03:41:19;;;;;;;24.80;11.27;;;;;;;0.04;71.35;100220.47;4808053;29;19928;-82
2021/12/06 03:43:47;;;;;;;;;;;;;;;-0.11;71.40;100222.25;4808188;29;20051;-82
2021/12/06 03:46:16;;;;;;;21.00;10.20;;;;;;;-0.02;71.29;100220.19;4795236;29;20386;-82
2021/12/06 03:48:44;;;;;;;22.25;10.13;;;;;;;-0.07;71.11;100213.91;4813530;29;20059;-83
2021/12/06 03:51:12;;;;;;;21.35;10.27;;;;;;;-0.05;71.34;100240.56;4811318;29;20058;-84
2021/12/06 03:53:43;;;;;;;22.08;11.13;;;;;;;-0.19;71.28;100197.84;4815052;29;20047;-84
2021/12/06 03:56:10;;;;;;;18.60;9.50;;;;;;;-0.08;70.92;100220.72;4831853;29;20042;-82
2021/12/06 03:58:38;;;;;;;19.10;9.73;;;;;;;-0.14;70.81;100216.97;4845888;29;20031;-84
2021/12/06 04:01:07;;;;;;;20.27;9.15;;;;;;;-0.13;71.02;100231.56;4845850;29;20050;-85
2021/12/06 04:03:37;;;;;;;21.33;10.48;;;;;;;-0.22;71.15;100245.69;4831259;29;20050;-82
2021/12/06 04:06:06;;;;;;;23.42;10.73;;;;;;;-0.27;71.38;100244.56;4829388;29;20055;-81
2021/12/06 04:08:34;;;;;;;22.85;10.23;;;;;;;-0.27;71.13;100242.00;4830470;29;20054;-78
2021/12/06 04:11:02;;;;;;;20.83;10.00;;;;;;;-0.35;71.30;100224.44;4814595;29;20035;-81
2021/12/06 04:13:33;;;;;;;;;;;;;;;-0.48;71.33;100253.69;4829648;29;20141;-82
2021/12/06 04:16:03;;;;;;;23.98;11.10;;;;;;;-0.37;72.06;100257.72;4829851;29;19913;-82
2021/12/06 04:18:33;;;;;;;23.27;10.75;;;;;;;-0.36;71.87;100264.63;4807945;29;20162;-83
2021/12/06 04:21:04;;;;;;;21.30;10.00;;;;;;;-0.43;71.54;100240.31;4809532;29;20054;-85
2021/12/06 04:23:36;;;;;;;25.92;11.48;;;;;;;-0.30;71.70;100267.53;4793105;29;20488;-84
2021/12/06 04:26:06;;;;;;;25.58;11.02;;;;;;;-0.29;71.06;100269.28;4808584;29;20062;-84
2021/12/06 04:28:35;;;;;;;25.55;11.55;;;;;;;-0.35;71.15;100260.38;4793326;29;20526;-84
2021/12/06 04:31:04;;;;;;;24.92;11.32;;;;;;;-0.60;71.43;100238.53;4812763;29;20062;-83
2021/12/06 04:33:31;;;;;;;20.40;10.38;;;;;;;-0.50;71.59;100265.56;4813064;29;20055;-86
2021/12/06 04:36:01;;;;;;;21.63;10.43;;;;;;;-0.48;71.09;100267.41;4798104;29;20158;-86
2021/12/06 04:38:30;;;;;;;21.40;10.30;;;;;;;-0.56;71.30;100278.06;4796517;29;20139;-85
2021/12/06 04:41:00;;;;;;;25.80;11.15;;;;;;;-0.52;71.42;100283.44;4796448;29;20051;-86
2021/12/06 04:43:28;;;;;;;23.67;10.90;;;;;;;-0.58;71.01;100269.38;4798262;29;20524;-86
2021/12/06 04:45:57;;;;;;;24.35;11.10;;;;;;;-0.56;70.63;100280.63;4797888;29;20580;-86
2021/12/06 04:48:25;;;;;;;20.67;10.52;;;;;;;-0.58;70.99;100295.97;4797442;29;20470;-86
2021/12/06 04:50:52;;;;;;;21.38;10.73;;;;;;;-0.56;70.81;100293.44;4798556;29;20059;-87
2021/12/06 04:53:26;;;;;;;24.10;11.10;;;;;;;-0.64;71.00;100298.19;4782282;29;20100;-86
2021/12/06 04:56:20;;;;;;;28.90;12.23;;;;;;;-0.71;71.00;100304.66;4795269;29;20061;-83
2021/12/06 04:58:56;;;;;;;29.13;13.18;;;;;;;-0.88;71.03;100293.47;4800137;29;20063;-84
2021/12/06 05:01:29;;;;;;;29.17;13.35;;;;;;;-1.00;71.67;100294.44;4806983;29;20058;-84
2021/12/06 05:04:10;;;;;;;28.58;13.60;;;;;;;-1.06;72.00;100284.72;4791853;29;20057;-85
2021/12/06 05:06:41;;;;;;;;;;;;;;;-1.04;72.24;100307.09;4798606;29;20055;-86
2021/12/06 05:09:22;;;;;;;29.95;13.23;;;;;;;-0.91;71.56;100298.41;4798257;29;19936;-86
2021/12/06 05:11:50;;;;;;;29.73;12.88;;;;;;;-0.92;71.67;100298.34;4800359;29;20069;-85
2021/12/06 05:14:19;;;;;;;30.52;12.73;;;;;;;-0.99;71.49;100301.34;4787194;29;20105;-83
2021/12/06 05:16:48;;;;;;;27.60;13.73;;;;;;;-0.93;71.13;100309.38;4805341;29;20055;-84
2021/12/06 05:19:15;;;;;;;29.13;13.75;;;;;;;-1.00;71.39;100297.00;4775342;29;20050;-83
2021/12/06 05:21:42;;;;;;;29.48;14.13;;;;;;;-0.92;71.01;100306.91;4790736;29;20141;-85
2021/12/06 05:24:10;;;;;;;29.63;14.77;;;;;;;-1.04;71.01;100283.13;4805748;29;20081;-85
2021/12/06 05:26:38;;;;;;;33.53;16.27;;;;;;;-1.13;70.91;100291.19;4805100;29;20074;-84
2021/12/06 05:29:10;;;;;;;33.05;15.85;;;;;;;-0.97;71.38;100317.69;4805186;29;20535;-87
2021/12/06 05:31:41;;;;;;;35.00;16.52;;;;;;;-1.13;71.20;100309.13;4806634;29;20145;-85
2021/12/06 05:34:16;;;;;;;32.72;15.65;;;;;;;-1.39;71.46;100309.31;4806827;29;20145;-82
2021/12/06 05:36:44;;;;;;;33.25;15.80;;;;;;;-1.47;72.11;100329.38;4823747;29;20409;-87
2021/12/06 05:39:11;;;;;;;32.83;15.95;;;;;;;-1.50;71.70;100350.56;4824930;29;20477;-86
2021/12/06 05:41:39;;;;;;;32.40;15.73;;;;;;;-1.43;71.57;100333.88;4824994;29;20066;-87
2021/12/06 05:44:06;;;;;;;33.30;16.02;;;;;;;-1.47;71.29;100339.63;4825221;29;20196;-87
2021/12/06 05:46:34;;;;;;;29.95;14.30;;;;;;;-1.53;71.35;100337.56;4824813;29;20054;-87
2021/12/06 05:49:02;;;;;;;33.42;15.60;;;;;;;-1.52;71.60;100338.47;4828789;29;20058;-87
2021/12/06 05:51:29;;;;;;;32.65;15.15;;;;;;;-1.57;71.37;100344.97;4827173;29;20127;-87
2021/12/06 05:53:57;;;;;;;34.05;15.15;;;;;;;-1.62;71.41;100347.28;4826979;29;20069;-84
2021/12/06 05:56:26;;;;;;;34.25;16.02;;;;;;;-1.73;71.83;100338.94;4828639;29;20502;-85
2021/12/06 05:58:53;;;;;;;36.60;15.88;;;;;;;-1.66;71.86;100335.06;4828369;29;20074;-85
2021/12/06 06:01:24;;;;;;;37.65;16.48;;;;;;;-1.59;71.88;100337.22;4828629;29;20062;-85
2021/12/06 06:03:52;;;;;;;39.13;16.20;;;;;;;-1.60;71.73;100337.13;4829000;29;20089;-88
2021/12/06 06:06:19;;;;;;;36.13;16.33;;;;;;;-1.66;71.35;100335.97;4827391;29;20089;-84
2021/12/06 06:08:46;;;;;;;40.78;16.27;;;;;;;-1.59;71.17;100352.59;4826795;29;20061;-84
2021/12/06 06:11:14;;;;;;;39.53;16.80;;;;;;;-1.62;70.99;100326.78;4827331;29;20062;-82
2021/12/06 06:13:41;;;;;;;42.75;17.67;;;;;;;-1.81;71.13;100327.34;4827872;29;20074;-84
2021/12/06 06:16:09;;;;;;;34.45;16.13;;;;;;;-1.94;71.62;100335.97;4826437;29;20059;-86
2021/12/06 06:18:36;;;;;;;39.30;16.48;;;;;;;-1.90;71.58;100344.72;4828835;29;20050;-85
2021/12/06 06:21:05;;;;;;;33.78;14.30;;;;;;;-1.92;71.16;100333.50;4801864;29;20086;-84
2021/12/06 06:23:32;;;;;;;30.70;13.73;;;;;;;-2.03;71.38;100355.03;4805445;29;20086;-85
2021/12/06 06:26:00;;;;;;;30.55;14.30;;;;;;;-2.37;71.97;100351.25;4810090;29;20066;-83
2021/12/06 06:28:28;;;;;;;29.65;13.25;;;;;;;-2.47;72.15;100356.59;4808079;29;20059;-85
2021/12/06 06:30:55;;;;;;;29.65;12.50;;;;;;;-2.45;72.37;100341.31;4807605;29;20481;-85
2021/12/06 06:33:23;;;;;;;33.65;13.25;;;;;;;-2.35;72.08;100366.69;4822101;29;20119;-84
2021/12/06 06:35:50;;;;;;;28.13;12.90;;;;;;;-2.33;72.04;100355.75;4816236;29;20070;-84
2021/12/06 06:38:18;;;;;;;29.25;12.98;;;;;;;-1.98;71.60;100361.28;4793081;29;20115;-86
2021/12/06 06:40:46;;;;;;;30.30;12.93;;;;;;;-1.96;70.95;100358.03;4809021;29;20058;-85
2021/12/06 06:43:14;;;;;;;29.60;12.27;;;;;;;-1.99;71.14;100386.03;4808466;29;20055;-85
2021/12/06 06:45:41;;;;;;;27.90;12.18;;;;;;;-2.19;71.29;100348.09;4814423;29;20474;-85
2021/12/06 06:48:09;;;;;;;30.55;11.93;;;;;;;-2.19;71.08;100348.97;4789432;29;20149;-85
2021/12/06 06:50:36;;;;;;;31.83;13.15;;;;;;;-1.99;70.94;100390.28;4804641;29;20050;-85
2021/12/06 06:53:04;;;;;;;27.02;12.30;;;;;;;-2.08;70.68;100376.09;4832248;29;20111;-84
2021/12/06 06:55:32;;;;;;;28.85;12.15;;;;;;;-1.91;70.63;100399.31;4830742;29;20059;-84
2021/12/06 06:57:59;;;;;;;32.08;14.15;;;;;;;-2.13;70.60;100367.28;4810097;29;20084;-83
2021/12/06 07:00:30;;;;;;;31.52;12.85;;;;;;;-1.99;70.48;100388.59;4815632;29;20055;-87
2021/12/06 07:02:58;;;;;;;34.30;13.63;;;;;;;-2.02;70.10;100385.84;4810896;29;20616;-86
2021/12/06 07:05:26;;;;;;;35.53;14.85;;;;;;;-2.09;70.60;100394.84;4811717;29;20055;-86
2021/12/06 07:07:54;;;;;;;37.67;15.13;;;;;;;-2.04;70.33;100395.13;4810941;29;20051;-88
2021/12/06 07:10:23;;;;;;;43.60;16.95;;;;;;;-2.18;70.31;100375.44;4810570;29;20086;-88
2021/12/06 07:12:52;;;;;;;44.10;16.52;;;;;;;-2.15;70.74;100397.00;4810791;29;20063;-86
2021/12/06 07:15:33;;;;;;;42.85;17.33;;;;;;;-2.37;70.75;100351.25;4809039;29;20485;-87
2021/12/06 07:18:01;;;;;;;42.45;17.40;;;;;;;-2.06;70.50;100397.56;4810040;29;20066;-86
2021/12/06 07:20:30;;;;;;;40.75;16.70;;;;;;;-2.09;70.81;100378.56;4809538;29;20078;-87
2021/12/06 07:22:57;;;;;;;47.65;17.40;;;;;;;-2.11;70.55;100377.56;4809269;29;20058;-84
2021/12/06 07:25:26;;;;;;;44.42;17.35;;;;;;;-1.94;70.09;100406.78;4808880;29;20054;-87
2021/12/06 07:27:54;;;;;;;43.35;17.27;;;;;;;-2.14;70.81;100375.72;4809888;29;20074;-84
2021/12/06 07:30:21;;;;;;;49.05;18.00;;;;;;;-1.95;70.55;100398.22;4803725;29;20066;-83
2021/12/06 07:32:50;;;;;;;52.42;18.25;;;;;;;-1.90;70.15;100408.75;4798912;29;20529;-84
2021/12/06 07:35:18;;;;;;;60.58;20.95;;;;;;;-1.95;70.16;100423.84;4792833;29;20101;-86
2021/12/06 07:37:45;;;;;;;57.35;20.55;;;;;;;-1.98;70.46;100405.75;4802006;29;20051;-85
2021/12/06 07:40:16;;;;;;;59.10;21.42;;;;;;;-2.09;70.29;100399.94;4800046;29;20086;-87
2021/12/06 07:42:44;;;;;;;59.45;21.02;;;;;;;-2.07;71.01;100416.25;4799088;29;20063;-85
2021/12/06 07:45:13;;;;;;;61.40;21.52;;;;;;;-2.03;71.00;100417.34;4802887;29;20059;-88
2021/12/06 07:47:42;;;;;;;64.37;20.90;;;;;;;-2.07;70.36;100384.66;4792860;30;20108;-89
2021/12/06 07:50:15;;;;;;;60.75;21.73;;;;;;;-1.92;70.74;100416.34;4789468;30;20307;-87
2021/12/06 07:52:51;;;;;;;62.75;24.27;;;;;;;-1.96;70.79;100403.25;4790559;29;20116;-86
2021/12/06 07:55:21;;;;;;;61.35;22.58;;;;;;;-1.83;70.69;100422.81;4791221;29;20063;-83
2021/12/06 07:57:49;;;;;;;61.88;23.10;;;;;;;-1.81;70.62;100408.44;4800404;30;20059;-83
2021/12/06 08:00:20;;;;;;;73.32;24.88;;;;;;;-1.87;70.33;100399.59;4800764;29;20063;-84
2021/12/06 08:02:48;;;;;;;53.67;20.83;;;;;;;-1.86;69.92;100419.28;4797184;30;20167;-83
2021/12/06 08:05:33;;;;;;;48.75;20.42;;;;;;;-1.96;70.60;100423.72;4795169;30;20146;-84
2021/12/06 08:08:03;;;;;;;50.50;19.95;;;;;;;-2.07;70.22;100402.59;4793848;30;20063;-84
2021/12/06 08:10:32;;;;;;;48.33;20.05;;;;;;;-1.94;70.25;100420.47;4790075;29;20066;-86
2021/12/06 08:12:59;;;;;;;51.05;21.42;;;;;;;-1.92;69.64;100415.44;4790238;30;20067;-85
2021/12/06 08:15:28;;;;;;;49.15;22.52;;;;;;;-2.02;70.10;100419.13;4788649;30;20067;-86
2021/12/06 08:17:55;;;;;;;49.47;22.27;;;;;;;-2.23;69.89;100381.97;4789445;29;20059;-84
2021/12/06 08:20:22;;;;;;;49.88;20.98;;;;;;;-2.01;70.04;100430.25;4788652;30;20071;-84
2021/12/06 08:22:50;;;;;;;47.25;19.75;;;;;;;-2.04;69.98;100425.84;4790325;29;20108;-84
2021/12/06 08:25:18;;;;;;;48.97;21.05;;;;;;;-2.08;69.99;100429.88;4788643;30;20055;-84
2021/12/06 08:27:46;;;;;;;43.85;20.38;;;;;;;-2.08;69.91;100417.06;4788338;30;20055;-85
2021/12/06 08:30:16;;;;;;;38.75;18.85;;;;;;;-2.15;70.10;100411.44;4788573;30;20141;-84
2021/12/06 08:32:43;;;;;;;39.00;18.00;;;;;;;-2.15;69.87;100422.59;4789280;30;20108;-83
2021/12/06 08:35:32;;;;;;;38.55;17.42;;;;;;;-2.36;70.11;100417.00;4804763;30;20096;-85
2021/12/06 08:37:59;;;;;;;34.97;16.73;;;;;;;-2.24;70.52;100428.81;4795371;29;20070;-85
2021/12/06 08:40:29;;;;;;;35.85;16.73;;;;;;;-2.30;69.85;100413.97;4788106;30;20067;-86
2021/12/06 08:42:56;;;;;;;35.72;16.63;;;;;;;-2.30;70.08;100411.41;4788588;29;20059;-85
2021/12/06 08:45:26;;;;;;;35.63;17.73;;;;;;;-2.32;69.82;100433.44;4787464;30;20068;-85
2021/12/06 08:47:55;;;;;;;34.83;15.88;;;;;;;-2.29;70.04;100431.94;4788325;29;20055;-84
2021/12/06 08:50:25;;;;;;;33.03;14.40;;;;;;;-2.20;69.59;100452.13;4788245;30;20583;-84
2021/12/06 08:52:53;;;;;;;35.00;15.60;;;;;;;-2.16;69.59;100472.00;4788567;30;20059;-85
2021/12/06 08:55:21;;;;;;;28.27;14.30;;;;;;;-2.14;69.25;100457.63;4788696;30;20051;-85
2021/12/06 08:57:50;;;;;;;26.38;12.85;;;;;;;-2.18;69.39;100445.44;4787531;30;20536;-85
2021/12/06 09:00:21;;;;;;;27.15;13.25;;;;;;;-2.12;68.97;100443.25;4792133;29;20066;-83
2021/12/06 09:02:48;;;;;;;26.95;12.57;;;;;;;-2.05;68.54;100444.53;4807249;29;20050;-84
2021/12/06 09:05:24;;;;;;;27.52;14.13;;;;;;;-2.14;68.79;100452.50;4846879;29;20083;-85
2021/12/06 09:07:52;;;;;;;29.50;14.13;;;;;;;-2.25;69.28;100440.72;4830132;29;20102;-84
2021/12/06 09:10:21;;;;;;;29.92;14.93;;;;;;;-2.23;69.32;100453.63;4829695;29;20459;-87
2021/12/06 09:12:49;;;;;;;33.10;14.30;;;;;;;-2.25;69.51;100450.97;4831332;29;20058;-86
2021/12/06 09:15:19;;;;;;;30.35;15.07;;;;;;;-2.32;69.48;100449.69;4827919;29;20058;-86
2021/12/06 09:17:49;;;;;;;29.42;14.07;;;;;;;-2.30;69.56;100443.00;4811831;29;20417;-88
2021/12/06 09:20:20;;;;;;;25.92;12.35;;;;;;;-2.41;69.29;100428.63;4825130;29;20128;-87
2021/12/06 09:22:48;;;;;;;25.23;12.25;;;;;;;-2.33;69.31;100447.00;4824693;29;20114;-87
2021/12/06 09:25:16;;;;;;;26.23;12.50;;;;;;;-2.53;69.79;100409.94;4809065;29;20058;-87
2021/12/06 09:27:45;;;;;;;28.05;12.93;;;;;;;-2.16;69.45;100448.09;4824389;29;20061;-86
2021/12/06 09:30:17;;;;;;;27.08;12.90;;;;;;;-2.04;68.74;100453.09;4825018;29;20058;-87
2021/12/06 09:32:45;;;;;;;27.50;13.40;;;;;;;-2.15;68.98;100431.94;4825782;29;20134;-86
2021/12/06 09:35:15;;;;;;;27.58;13.65;;;;;;;-2.07;69.11;100438.44;4825284;29;20579;-89
2021/12/06 09:37:44;;;;;;;27.95;13.52;;;;;;;-2.07;69.15;100456.34;4824221;29;20054;-86
2021/12/06 09:40:15;;;;;;;23.00;11.43;;;;;;;-2.11;68.72;100445.06;4824586;29;20490;-86
2021/12/06 09:42:44;;;;;;;25.10;12.63;;;;;;;-2.24;69.13;100437.34;4825352;29;20060;-90
2021/12/06 09:45:20;;;;;;;26.88;12.93;;;;;;;-2.20;69.01;100431.66;4826542;29;20089;-87
2021/12/06 09:47:51;;;;;;;26.92;12.85;;;;;;;-2.15;69.23;100430.28;4829984;29;20070;-86
2021/12/06 09:50:24;;;;;;;27.55;13.63;;;;;;;-2.08;69.07;100439.22;4828276;29;20058;-86
2021/12/06 09:52:57;;;;;;;26.17;12.82;;;;;;;-1.98;68.90;100453.47;4826678;29;20404;-86
2021/12/06 09:55:25;;;;;;;25.25;13.20;;;;;;;-1.99;68.65;100456.84;4817281;29;20065;-87
2021/12/06 09:57:53;;;;;;;26.85;12.55;;;;;;;-2.08;68.73;100439.22;4827213;29;20057;-89
2021/12/06 10:00:27;;;;;;;23.35;12.27;;;;;;;-1.92;68.71;100474.34;4828587;29;20531;-89
2021/12/06 10:03:02;;;;;;;27.48;11.77;;;;;;;-2.05;68.77;100459.88;4825228;29;20479;-86
2021/12/06 10:05:30;;;;;;;24.30;11.93;;;;;;;-2.19;68.80;100445.34;4828526;29;20072;-88
2021/12/06 10:08:00;;;;;;;24.75;12.20;;;;;;;-2.11;68.84;100482.53;4823821;29;20424;-87
2021/12/06 10:10:29;;;;;;;24.73;12.00;;;;;;;-2.18;69.12;100483.81;4822503;29;20405;-86
2021/12/06 10:12:59;;;;;;;23.60;11.85;;;;;;;-2.04;68.64;100466.81;4824159;29;20299;-88
2021/12/06 10:15:29;;;;;;;23.30;11.63;;;;;;;-1.93;68.98;100473.47;4808283;29;20062;-87
2021/12/06 10:18:00;;;;;;;25.63;12.63;;;;;;;-1.90;68.37;100476.22;4823694;29;20062;-85
2021/12/06 10:20:30;;;;;;;24.42;11.45;;;;;;;-1.88;68.69;100472.06;4824691;29;20058;-87
2021/12/06 10:22:59;;;;;;;25.03;11.77;;;;;;;-1.80;68.48;100452.09;4824412;29;20103;-86
2021/12/06 10:25:39;;;;;;;24.63;11.88;;;;;;;-1.92;68.27;100439.38;4822818;29;20325;-85
2021/12/06 10:28:13;;;;;;;25.90;11.98;;;;;;;-1.81;68.36;100452.84;4810279;29;20057;-85
2021/12/06 10:30:48;;;;;;;25.42;11.65;;;;;;;-2.01;68.35;100430.25;4826237;29;20058;-85
2021/12/06 10:33:20;;;;;;;24.55;11.95;;;;;;;-2.00;68.64;100432.00;4824500;29;20157;-86
2021/12/06 10:35:50;;;;;;;22.52;10.52;;;;;;;-1.91;68.73;100458.22;4827171;29;20058;-86
2021/12/06 10:38:28;;;;;;;22.23;10.80;;;;;;;-2.16;68.64;100454.09;4833391;29;20062;-86
2021/12/06 10:41:05;;;;;;;19.88;10.40;;;;;;;-2.05;68.21;100441.97;4831030;29;20523;-86
2021/12/06 10:43:34;;;;;;;22.58;11.05;;;;;;;-1.93;68.43;100464.91;4827779;29;20145;-85
2021/12/06 10:46:05;;;;;;;22.17;10.95;;;;;;;-1.88;68.53;100474.63;4825591;29;20069;-85
2021/12/06 10:48:41;;;;;;;29.70;13.73;;;;;;;-1.94;68.39;100458.00;4793666;29;20055;-85
2021/12/06 10:51:13;;;;;;;19.83;10.23;;;;;;;-1.92;68.07;100447.06;4760498;30;20454;-86
2021/12/06 10:53:48;;;;;;;22.00;11.65;;;;;;;-1.82;68.10;100460.47;4790480;30;20067;-87
2021/12/06 10:56:33;;;;;;;21.90;11.55;;;;;;;-2.33;68.22;100383.03;4805918;29;20085;-85
2021/12/06 10:59:05;;;;;;;21.00;10.68;;;;;;;-1.95;68.50;100466.50;4812268;29;20043;-82
2021/12/06 11:01:44;;;;;;;21.25;10.77;;;;;;;-1.98;68.66;100456.03;4825603;29;20086;-82
2021/12/06 11:04:16;;;;;;;24.42;11.13;;;;;;;-2.08;68.97;100454.59;4811556;29;20035;-81
2021/12/06 11:06:48;;;;;;;22.75;11.18;;;;;;;-2.19;69.14;100430.88;4825997;29;20046;-82
2021/12/06 11:09:22;;;;;;;20.17;10.73;;;;;;;-2.04;68.69;100446.31;4798534;29;20062;-84
2021/12/06 11:11:54;;;;;;;24.75;11.10;;;;;;;-2.04;68.95;100454.00;4801105;30;20224;-82
2021/12/06 11:14:25;;;;;;;26.10;11.93;;;;;;;-2.21;69.13;100424.78;4805835;29;20054;-83
2021/12/06 11:17:25;;;;;;;22.20;11.15;;;;;;;-2.06;69.07;100447.91;4798677;29;20475;-84
2021/12/06 11:19:57;;;;;;;23.38;10.88;;;;;;;-2.16;68.81;100430.19;4791095;29;20139;-82
2021/12/06 11:22:25;;;;;;;23.48;11.18;;;;;;;-2.06;68.74;100447.91;4790495;30;20175;-86
2021/12/06 11:24:54;;;;;;;25.02;11.80;;;;;;;-1.92;68.98;100472.66;4791419;29;20075;-85
2021/12/06 11:27:30;;;;;;;25.15;11.88;;;;;;;-1.93;69.08;100475.16;4775762;30;20501;-86
2021/12/06 11:30:03;;;;;;;28.63;11.50;;;;;;;-1.79;68.86;100469.19;4809705;29;20075;-85
2021/12/06 11:32:48;;;;;;;32.20;11.75;;;;;;;-1.62;68.30;100471.94;4797006;29;20405;-84
2021/12/06 11:35:19;;;;;;;31.75;12.18;;;;;;;-1.58;68.16;100472.22;4827850;29;20055;-85
2021/12/06 11:37:52;;;;;;;27.70;11.95;;;;;;;-1.72;68.19;100461.13;4811742;29;20035;-85
2021/12/06 11:40:33;;;;;;;32.90;12.00;;;;;;;-1.71;68.02;100451.75;4812273;29;20067;-84
2021/12/06 11:43:03;;;;;;;;;;;;;;;-1.77;68.89;100487.22;4812750;29;20063;-84
2021/12/06 11:45:45;;;;;;;33.40;13.35;;;;;;;-1.67;68.51;100475.09;4808827;29;19934;-86